»·PEaware :: WAT169 KSNA-KSLC

WAT169 :: KSNA-KSLC

FLIGHT INFORMATION

Flight Status: Arrived
Operator:
Walker Air Transport
More flights by this operator :: More flights under this callsign
Pilot: Marty P. (27464)
Aircraft: BOEING 737-800
(B738)
More flights by this aircraft type
Origin: KSNA John Wayne-Orange Co
United States
Destination: KSLC Salt Lake City Intl
United States
More flights between these airports :: More routes between these airports
Route: +FINZZ3 BEALE Q842 WINEN MLF DELTA5
File this flight plan on PilotEdge
Remarks:
Altitude:
(Current/Filed)
39,000ft
Speed:
(Current/Filed)
480kts
Departed: 18-Oct-20 05:08 PM
Arrived: 18-Oct-20 06:31 PM
Distance/Time
Traveled:
512nm/1:23
Distance/Time
To Go:
Arrived

Flight Plot

Page will automatically refresh every two minutes.

Flight plan parsing failed; only flown route is shown


Map Options




Map Legend


Flown Route
Filed Route
Departure Airport
Arrival Airport
Navaid (VOR, NDB)
Fix

Horizontal Profiles

Position Reports

Time Latitude Longitude Heading Altitude Ground
Speed
18-Oct-20 16:51 33.675005 -117.865072 118 67ft 0kts
18-Oct-20 16:52 33.675005 -117.865072 118 66ft 0kts
18-Oct-20 16:53 33.675005 -117.865072 118 66ft 0kts
18-Oct-20 16:54 33.675005 -117.865072 118 66ft 0kts
18-Oct-20 16:55 33.675005 -117.865072 118 66ft 0kts
18-Oct-20 16:56 33.675005 -117.865072 118 66ft 0kts
18-Oct-20 16:57 33.675005 -117.865072 118 66ft 0kts
18-Oct-20 16:58 33.675005 -117.865074 118 66ft 0kts
18-Oct-20 16:59 33.675152 -117.865661 72 66ft 2kts
18-Oct-20 17:00 33.674922 -117.865964 27 66ft 0kts
18-Oct-20 17:01 33.674922 -117.865964 27 66ft 0kts
18-Oct-20 17:02 33.674922 -117.865964 27 66ft 0kts
18-Oct-20 17:04 33.675415 -117.865645 28 66ft 6kts
18-Oct-20 17:05 33.678296 -117.863818 27 66ft 9kts
18-Oct-20 17:06 33.680586 -117.862894 298 66ft 3kts
18-Oct-20 17:07 33.681074 -117.864030 298 66ft 13kts
18-Oct-20 17:08 33.678912 -117.866788 207 66ft 78kts
18-Oct-20 17:09 33.639956 -117.889382 195 1623ft 201kts
18-Oct-20 17:10 33.576397 -117.902483 204 4497ft 247kts
18-Oct-20 17:11 33.522834 -117.954366 232 7790ft 257kts
18-Oct-20 17:12 33.509958 -118.032933 293 8003ft 243kts
18-Oct-20 17:13 33.553986 -118.094361 322 7999ft 245kts
18-Oct-20 17:14 33.622173 -118.110079 13 10781ft 288kts
18-Oct-20 17:15 33.707742 -118.061158 24 12044ft 383kts
18-Oct-20 17:16 33.805556 -118.003800 24 15117ft 400kts
18-Oct-20 17:17 33.906639 -117.942652 31 17799ft 416kts
18-Oct-20 17:18 34.001537 -117.857879 35 20104ft 433kts
18-Oct-20 17:19 34.093699 -117.760635 45 22037ft 451kts
18-Oct-20 17:19 34.163515 -117.664175 48 23536ft 463kts
18-Oct-20 17:21 34.261138 -117.521923 48 25453ft 477kts
18-Oct-20 17:21 34.331373 -117.417633 49 26861ft 483kts
18-Oct-20 17:23 34.421293 -117.283060 49 28981ft 479kts
18-Oct-20 17:23 34.491041 -117.178473 49 30429ft 478kts
18-Oct-20 17:25 34.589005 -117.032911 47 32228ft 478kts
18-Oct-20 17:25 34.660036 -116.929499 47 33360ft 479kts
18-Oct-20 17:27 34.760793 -116.782385 47 34345ft 491kts
18-Oct-20 17:27 34.833231 -116.676211 47 35338ft 490kts
18-Oct-20 17:28 34.923025 -116.552206 44 36458ft 488kts
18-Oct-20 17:29 35.014490 -116.430345 44 37403ft 489kts
18-Oct-20 17:30 35.105937 -116.307847 44 38189ft 490kts
18-Oct-20 17:31 35.197640 -116.184537 44 38878ft 490kts
18-Oct-20 17:32 35.290109 -116.059699 44 39028ft 501kts
18-Oct-20 17:33 35.384374 -115.931910 44 39027ft 511kts
18-Oct-20 17:34 35.479703 -115.802174 44 39026ft 515kts
18-Oct-20 17:35 35.575495 -115.671311 44 39027ft 518kts
18-Oct-20 17:36 35.671656 -115.539436 44 39026ft 519kts
18-Oct-20 17:37 35.766897 -115.406825 45 39027ft 520kts
18-Oct-20 17:38 35.862087 -115.274386 45 39026ft 519kts
18-Oct-20 17:39 35.957780 -115.141414 45 39023ft 519kts
18-Oct-20 17:40 36.053538 -115.007944 45 38995ft 518kts
18-Oct-20 17:41 36.148623 -114.875178 43 38976ft 516kts
18-Oct-20 17:42 36.262994 -114.773130 24 38976ft 505kts
18-Oct-20 17:43 36.386778 -114.690921 24 38965ft 505kts
18-Oct-20 17:44 36.510130 -114.608935 24 38963ft 505kts
18-Oct-20 17:45 36.633826 -114.526441 24 38963ft 505kts
18-Oct-20 17:46 36.755936 -114.439461 28 38971ft 507kts
18-Oct-20 17:47 36.874668 -114.346255 28 38995ft 506kts
18-Oct-20 17:48 36.994134 -114.252333 28 39021ft 505kts
18-Oct-20 17:49 37.111419 -114.159818 28 39027ft 505kts
18-Oct-20 17:50 37.230166 -114.065802 28 39078ft 504kts
18-Oct-20 17:51 37.348610 -113.971675 28 39155ft 504kts
18-Oct-20 17:52 37.467051 -113.877202 28 39155ft 505kts
18-Oct-20 17:53 37.585496 -113.782361 27 39155ft 505kts
18-Oct-20 17:54 37.703799 -113.687272 27 39155ft 505kts
18-Oct-20 17:55 37.822177 -113.591756 27 39147ft 506kts
18-Oct-20 17:56 37.938093 -113.489953 35 39129ft 511kts
18-Oct-20 17:57 38.045495 -113.371896 36 39127ft 512kts
18-Oct-20 17:58 38.151932 -113.251889 36 39127ft 513kts
18-Oct-20 17:59 38.258132 -113.131047 36 39127ft 514kts
18-Oct-20 18:00 38.366346 -113.016769 25 39051ft 481kts
18-Oct-20 18:01 38.485324 -112.946834 16 37101ft 469kts
18-Oct-20 18:02 38.605545 -112.882632 15 35100ft 470kts
18-Oct-20 18:03 38.726747 -112.817758 16 33093ft 474kts
18-Oct-20 18:04 38.848096 -112.752554 16 31087ft 473kts
18-Oct-20 18:05 38.969126 -112.686958 16 29083ft 474kts
18-Oct-20 18:06 39.091116 -112.620830 16 27078ft 479kts
18-Oct-20 18:07 39.209261 -112.556504 16 25064ft 452kts
18-Oct-20 18:08 39.324630 -112.499954 9 24141ft 439kts
18-Oct-20 18:09 39.444116 -112.459057 8 22960ft 442kts
18-Oct-20 18:10 39.561465 -112.419785 8 21670ft 439kts
18-Oct-20 18:11 39.678888 -112.380585 8 20413ft 430kts
18-Oct-20 18:12 39.793645 -112.342210 9 19212ft 423kts
18-Oct-20 18:13 39.906274 -112.304312 9 18082ft 409kts
18-Oct-20 18:14 40.016224 -112.267319 9 17090ft 408kts
18-Oct-20 18:15 40.117948 -112.232686 9 17031ft 370kts
18-Oct-20 18:16 40.218194 -112.198737 9 15991ft 374kts
18-Oct-20 18:17 40.316951 -112.165092 9 14005ft 355kts
18-Oct-20 18:18 40.414032 -112.131994 10 13412ft 361kts
18-Oct-20 18:19 40.510582 -112.099037 9 13018ft 358kts
18-Oct-20 18:20 40.609564 -112.079520 359 11050ft 350kts
18-Oct-20 18:21 40.696424 -112.085220 350 10988ft 280kts
18-Oct-20 18:22 40.768340 -112.093793 349 10946ft 241kts
18-Oct-20 18:23 40.835973 -112.101914 351 8997ft 243kts
18-Oct-20 18:24 40.901882 -112.109721 352 7047ft 231kts
18-Oct-20 18:25 40.965278 -112.113786 20 6987ft 235kts
18-Oct-20 18:26 40.985536 -112.040055 108 7038ft 212kts
18-Oct-20 18:27 40.949628 -111.984953 184 7006ft 208kts
18-Oct-20 18:28 40.892245 -111.986937 177 5926ft 202kts
18-Oct-20 18:29 40.841829 -111.981009 176 4903ft 148kts
18-Oct-20 18:30 40.824503 -111.984690 257 4223ft 0kts

Navigation Log

Ident Type
Flight plan parsing failed, navigation log unavailable